createdAt,value
2022-11-05T00:00:11.434Z,11.74
2022-11-05T00:03:36.720Z,11.73
2022-11-05T00:07:01.898Z,11.7
2022-11-05T00:10:27.192Z,11.71
2022-11-05T00:13:52.439Z,11.69
2022-11-05T00:17:17.699Z,11.69
2022-11-05T00:20:42.944Z,11.69
2022-11-05T00:24:08.196Z,11.7
2022-11-05T00:27:33.477Z,11.7
2022-11-05T00:30:58.696Z,11.69
2022-11-05T00:34:23.966Z,11.7
2022-11-05T00:37:50.665Z,11.69
2022-11-05T00:41:15.203Z,11.66
2022-11-05T00:44:40.412Z,11.65
2022-11-05T00:48:05.641Z,11.65
2022-11-05T00:51:30.875Z,11.58
2022-11-05T00:54:56.123Z,11.52
2022-11-05T00:58:21.381Z,11.49
2022-11-05T01:01:46.794Z,11.51
2022-11-05T01:05:11.884Z,11.51
2022-11-05T01:08:37.138Z,11.5
2022-11-05T01:12:02.370Z,11.51
2022-11-05T01:15:27.630Z,11.52
2022-11-05T01:18:52.886Z,11.45
2022-11-05T01:22:18.089Z,11.4
2022-11-05T01:25:43.344Z,11.38
2022-11-05T01:29:08.711Z,11.37
2022-11-05T01:32:33.850Z,11.35
2022-11-05T01:35:59.126Z,11.36
2022-11-05T01:39:24.332Z,11.37
2022-11-05T01:42:49.592Z,11.42
2022-11-05T01:46:14.841Z,11.44
2022-11-05T01:49:40.090Z,11.47
2022-11-05T01:53:05.383Z,11.49
2022-11-05T01:56:30.579Z,11.48
2022-11-05T01:59:55.824Z,11.46
2022-11-05T02:03:21.079Z,11.48
2022-11-05T02:06:46.468Z,11.47
2022-11-05T02:10:11.595Z,11.47
2022-11-05T02:13:36.838Z,11.44
2022-11-05T02:17:02.075Z,11.43
2022-11-05T02:20:27.319Z,11.45
2022-11-05T02:23:52.565Z,11.48
2022-11-05T02:27:17.985Z,11.5
2022-11-05T02:30:43.066Z,11.5
2022-11-05T02:34:08.340Z,11.48
2022-11-05T02:37:33.570Z,11.5
2022-11-05T02:40:58.854Z,11.5
2022-11-05T02:44:24.152Z,11.54
2022-11-05T02:47:49.359Z,11.56
2022-11-05T02:51:14.606Z,11.59
2022-11-05T02:54:39.878Z,11.61
2022-11-05T02:58:05.138Z,11.62
2022-11-05T03:01:30.497Z,11.61
2022-11-05T03:04:55.663Z,11.62
2022-11-05T03:08:20.930Z,11.64
2022-11-05T03:11:46.180Z,11.66
2022-11-05T03:15:11.459Z,11.65
2022-11-05T03:18:36.742Z,11.67
2022-11-05T03:22:01.971Z,11.7
2022-11-05T03:25:27.205Z,11.71
2022-11-05T03:28:52.443Z,11.69
2022-11-05T03:32:17.707Z,11.7
2022-11-05T03:35:42.978Z,11.69
2022-11-05T03:39:08.223Z,11.68
2022-11-05T03:42:33.478Z,11.67
2022-11-05T03:45:58.727Z,11.64
2022-11-05T03:49:23.970Z,11.62
2022-11-05T03:52:49.252Z,11.58
2022-11-05T03:56:14.469Z,11.51
2022-11-05T03:59:39.715Z,11.5
2022-11-05T04:03:05.001Z,11.48
2022-11-05T04:06:30.210Z,11.43
2022-11-05T04:09:55.486Z,11.42
2022-11-05T04:13:20.716Z,11.41
2022-11-05T04:16:45.955Z,11.4
2022-11-05T04:20:11.243Z,11.38
2022-11-05T04:23:36.507Z,11.37
2022-11-05T04:27:01.809Z,11.32
2022-11-05T04:30:27.015Z,11.26
2022-11-05T04:33:52.289Z,11.26
2022-11-05T04:37:17.518Z,11.25
2022-11-05T04:40:42.745Z,11.24
2022-11-05T04:44:08.032Z,11.26
2022-11-05T04:47:33.247Z,11.26
2022-11-05T04:50:58.508Z,11.25
2022-11-05T04:54:23.763Z,11.19
2022-11-05T04:57:49.024Z,11.11
2022-11-05T05:01:14.429Z,11.09
2022-11-05T05:04:39.485Z,11.06
2022-11-05T05:08:04.711Z,11.05
2022-11-05T05:11:29.934Z,11.03
2022-11-05T05:14:55.192Z,11.01
2022-11-05T05:18:20.639Z,11.01
2022-11-05T05:21:45.781Z,10.97
2022-11-05T05:25:11.077Z,10.96
2022-11-05T05:28:36.365Z,10.94
2022-11-05T05:32:01.641Z,10.94
2022-11-05T05:35:26.927Z,10.95
2022-11-05T05:38:52.148Z,10.97
2022-11-05T05:42:17.384Z,10.98
2022-11-05T05:45:42.626Z,10.98
2022-11-05T05:49:12.128Z,10.99
2022-11-05T05:52:33.148Z,10.98
2022-11-05T05:55:58.362Z,10.98
2022-11-05T05:59:23.616Z,10.96
2022-11-05T06:02:48.901Z,10.97
2022-11-05T06:06:14.094Z,10.99
2022-11-05T06:09:39.400Z,11.04
2022-11-05T06:13:04.643Z,11.06
2022-11-05T06:16:29.892Z,11.11
2022-11-05T06:19:55.149Z,11.14
2022-11-05T06:23:20.438Z,11.2
2022-11-05T06:26:45.672Z,11.22
2022-11-05T06:30:10.899Z,11.25
2022-11-05T06:33:36.135Z,11.27
2022-11-05T06:37:01.367Z,11.3
2022-11-05T06:40:26.633Z,11.3
2022-11-05T06:43:51.911Z,11.32
2022-11-05T06:47:17.129Z,11.35
2022-11-05T06:50:42.402Z,11.36
2022-11-05T06:54:07.657Z,11.37
2022-11-05T06:57:32.919Z,11.38
2022-11-05T07:00:58.276Z,11.37
2022-11-05T07:04:23.432Z,11.36
2022-11-05T07:07:48.678Z,11.39
2022-11-05T07:11:13.937Z,11.42
2022-11-05T07:14:39.179Z,11.45
2022-11-05T07:18:04.463Z,11.54
2022-11-05T07:21:29.689Z,11.57
2022-11-05T07:24:54.931Z,11.59
2022-11-05T07:28:20.192Z,11.63
2022-11-05T07:31:45.480Z,11.7
2022-11-05T07:35:10.767Z,11.75
2022-11-05T07:38:35.963Z,11.8
2022-11-05T07:42:01.216Z,11.85
2022-11-05T07:45:26.434Z,11.92
2022-11-05T07:48:51.703Z,11.96
2022-11-05T07:52:16.987Z,12.01
2022-11-05T07:55:42.201Z,12.03
2022-11-05T07:59:07.455Z,12.06
2022-11-05T08:02:32.841Z,12.07
2022-11-05T08:05:57.975Z,12.11
2022-11-05T08:09:23.263Z,12.17
2022-11-05T08:12:48.529Z,12.2
2022-11-05T08:16:13.804Z,12.22
2022-11-05T08:19:39.076Z,12.22
2022-11-05T08:23:04.347Z,12.24
2022-11-05T08:26:29.653Z,12.24
2022-11-05T08:29:54.910Z,12.24
2022-11-05T08:33:20.175Z,12.22
2022-11-05T08:36:45.467Z,12.23
2022-11-05T08:40:10.763Z,12.24
2022-11-05T08:43:36.075Z,12.23
2022-11-05T08:47:01.344Z,12.28
2022-11-05T08:50:26.634Z,12.33
2022-11-05T08:53:51.950Z,12.39
2022-11-05T08:57:17.217Z,12.44
2022-11-05T09:00:42.648Z,12.48
2022-11-05T09:04:07.834Z,12.51
2022-11-05T09:07:33.183Z,12.5
2022-11-05T09:10:58.525Z,12.49
2022-11-05T09:14:23.823Z,12.5
2022-11-05T09:17:49.290Z,12.5
2022-11-05T09:21:14.488Z,12.51
2022-11-05T09:24:39.818Z,12.54
2022-11-05T09:28:05.158Z,12.54
2022-11-05T09:31:30.477Z,12.58
2022-11-05T09:34:55.806Z,12.64
2022-11-05T09:38:21.064Z,12.7
2022-11-05T09:41:46.357Z,12.76
2022-11-05T09:45:11.625Z,12.83
2022-11-05T09:48:36.982Z,12.89
2022-11-05T09:52:02.307Z,12.94
2022-11-05T09:55:27.563Z,12.96
2022-11-05T09:58:52.854Z,13.01
2022-11-05T10:02:18.204Z,13.05
2022-11-05T10:05:43.529Z,13.12
2022-11-05T10:09:08.770Z,13.16
2022-11-05T10:12:34.107Z,13.2
2022-11-05T10:15:59.390Z,13.27
2022-11-05T10:19:24.850Z,13.3
2022-11-05T10:22:50.080Z,13.36
2022-11-05T10:26:15.450Z,13.39
2022-11-05T10:29:40.552Z,13.41
2022-11-05T10:33:05.823Z,13.43
2022-11-05T10:36:31.091Z,13.45
2022-11-05T10:39:56.343Z,13.47
2022-11-05T10:43:21.626Z,13.47
2022-11-05T10:46:46.860Z,13.47
2022-11-05T10:50:12.121Z,13.44
2022-11-05T10:53:37.388Z,13.44
2022-11-05T10:57:02.651Z,13.51
2022-11-05T11:00:27.962Z,13.61
2022-11-05T11:03:53.348Z,13.7
2022-11-05T11:07:19.545Z,13.85
2022-11-05T11:10:47.611Z,13.95
2022-11-05T11:14:13.062Z,13.97
2022-11-05T11:17:38.455Z,13.96
2022-11-05T11:21:06.615Z,13.9
2022-11-05T11:24:33.598Z,13.84
2022-11-05T11:27:58.276Z,13.75
2022-11-05T11:31:23.589Z,13.69
2022-11-05T11:34:49.089Z,13.63
2022-11-05T11:38:14.999Z,13.56
2022-11-05T11:41:40.959Z,13.5
2022-11-05T11:45:07.105Z,13.41
2022-11-05T11:48:32.461Z,13.34
2022-11-05T11:51:57.703Z,13.28
2022-11-05T11:55:24.524Z,13.2
2022-11-05T11:58:52.554Z,13.22
2022-11-05T12:02:19.166Z,13.32
2022-11-05T12:05:46.377Z,13.47
2022-11-05T12:09:13.259Z,13.55
2022-11-05T12:12:42.333Z,13.63
2022-11-05T12:16:08.633Z,13.72
2022-11-05T12:19:34.218Z,13.83
2022-11-05T12:22:59.506Z,13.94
2022-11-05T12:26:24.811Z,13.98
2022-11-05T12:29:50.251Z,14.08
2022-11-05T12:33:16.037Z,14.18
2022-11-05T12:36:40.836Z,14.35
2022-11-05T12:40:06.112Z,14.44
2022-11-05T12:43:31.554Z,14.46
2022-11-05T12:46:56.708Z,14.52
2022-11-05T12:50:21.952Z,14.5
2022-11-05T12:53:47.232Z,14.49
2022-11-05T12:57:12.508Z,14.45
2022-11-05T13:00:37.857Z,14.41
2022-11-05T13:04:03.151Z,14.36
2022-11-05T13:07:28.467Z,14.25
2022-11-05T13:10:53.794Z,14.17
2022-11-05T13:14:19.161Z,14.11
2022-11-05T13:17:44.485Z,14.08
2022-11-05T13:21:09.784Z,13.99
2022-11-05T13:24:35.122Z,13.87
2022-11-05T13:28:00.430Z,13.68
2022-11-05T13:31:25.749Z,13.52
2022-11-05T13:34:51.068Z,13.39
2022-11-05T13:38:16.331Z,13.27
2022-11-05T13:41:41.694Z,13.17
2022-11-05T13:45:06.990Z,13.04
2022-11-05T13:48:32.309Z,13
2022-11-05T13:51:57.628Z,12.99
2022-11-05T13:55:22.983Z,12.99
2022-11-05T13:58:48.265Z,12.96
2022-11-05T14:02:13.815Z,12.96
2022-11-05T14:05:39.087Z,12.99
2022-11-05T14:09:04.480Z,13.02
2022-11-05T14:12:29.997Z,13.05
2022-11-05T14:15:55.427Z,13.04
2022-11-05T14:19:21.011Z,13.04
2022-11-05T14:22:46.488Z,13.05
2022-11-05T14:26:11.799Z,13.07
2022-11-05T15:02:24.324Z,10.4
2022-11-05T15:05:49.503Z,11.35
2022-11-05T15:09:14.843Z,11.55
2022-11-05T15:12:40.258Z,11.71
2022-11-05T15:16:05.608Z,11.86
2022-11-05T15:19:30.944Z,11.94
2022-11-05T15:22:56.197Z,12
2022-11-05T15:26:21.539Z,12.03
2022-11-05T15:29:47.163Z,12.01
2022-11-05T15:33:12.836Z,12
2022-11-05T15:36:38.111Z,11.99
2022-11-05T15:40:03.825Z,11.96
2022-11-05T15:43:29.182Z,11.94
2022-11-05T15:46:54.513Z,11.89
2022-11-05T15:50:19.926Z,11.83
2022-11-05T15:54:08.677Z,11.8
2022-11-05T15:57:10.838Z,11.75
2022-11-05T16:00:37.122Z,11.69
2022-11-05T16:04:07.129Z,11.6
2022-11-05T16:07:28.067Z,11.56
2022-11-05T16:10:53.525Z,11.49
2022-11-05T16:14:18.848Z,11.45
2022-11-05T16:17:44.340Z,11.41
2022-11-05T16:21:09.687Z,11.31
2022-11-05T16:24:35.119Z,11.25
2022-11-05T16:28:00.491Z,11.2
2022-11-05T16:31:25.859Z,11.17
2022-11-05T16:34:51.504Z,11.17
2022-11-05T16:38:16.887Z,11.19
2022-11-05T16:41:42.297Z,11.19
2022-11-05T16:45:10.332Z,11.1
2022-11-05T16:48:35.888Z,11.05
2022-11-05T16:52:01.513Z,11.01
2022-11-05T16:55:27.920Z,10.98
2022-11-05T16:58:53.716Z,10.98
2022-11-05T17:02:19.215Z,10.99
2022-11-05T17:05:44.461Z,11.01
2022-11-05T17:09:09.984Z,11.01
2022-11-05T17:12:35.226Z,11.05
2022-11-05T17:16:00.571Z,11.06
2022-11-05T17:19:25.961Z,11.09
2022-11-05T17:22:52.331Z,11.12
2022-11-05T17:26:18.214Z,11.15
2022-11-05T17:29:43.831Z,11.21
2022-11-05T17:33:09.368Z,11.25
2022-11-05T17:36:34.718Z,11.3
2022-11-05T17:40:00.004Z,11.34
2022-11-05T17:43:25.403Z,11.37
2022-11-05T17:46:51.205Z,11.39
2022-11-05T17:50:18.618Z,11.41
2022-11-05T17:53:44.324Z,11.41
2022-11-05T17:57:09.903Z,11.43
2022-11-05T18:00:35.486Z,11.45
2022-11-05T18:04:07.100Z,11.49
2022-11-05T18:07:26.533Z,11.49
2022-11-05T18:10:51.955Z,11.49
2022-11-05T18:14:21.369Z,11.49
2022-11-05T18:17:42.922Z,11.49
2022-11-05T18:21:08.703Z,11.5
2022-11-05T18:24:34.416Z,11.5
2022-11-05T18:28:01.709Z,11.52
2022-11-05T18:31:31.117Z,11.49
2022-11-05T18:35:29.562Z,11.49
2022-11-05T18:40:58.651Z,11.48
2022-11-05T18:44:41.591Z,11.44
2022-11-05T18:48:10.947Z,11.4
2022-11-05T18:51:48.185Z,11.34
2022-11-05T18:55:20.100Z,11.27
2022-11-05T18:59:22.340Z,11.25
2022-11-05T19:02:33.950Z,11.22
2022-11-05T19:06:03.828Z,11.16
2022-11-05T19:09:30.143Z,11.11
2022-11-05T19:13:01.189Z,11.08
2022-11-05T19:16:32.222Z,11.07
2022-11-05T19:20:03.182Z,11.07
2022-11-05T19:23:37.022Z,11.06
2022-11-05T19:27:07.676Z,11.03
2022-11-05T19:30:43.759Z,10.97
2022-11-05T19:34:19.871Z,10.96
2022-11-05T19:37:52.395Z,10.94
2022-11-05T19:41:22.614Z,10.91
2022-11-05T19:45:16.986Z,10.88
2022-11-05T19:48:37.965Z,10.88
2022-11-05T19:52:10.102Z,10.88
2022-11-05T19:55:37.481Z,10.86
2022-11-05T19:59:26.930Z,10.85
2022-11-05T20:04:10.231Z,10.83
2022-11-05T20:07:44.996Z,10.83
2022-11-05T20:11:12.500Z,10.82
2022-11-05T20:14:41.022Z,10.76
2022-11-05T20:18:10.031Z,10.72
2022-11-05T20:21:35.199Z,10.73
2022-11-05T20:25:00.553Z,10.77
2022-11-05T20:28:25.906Z,10.81
2022-11-05T20:31:51.197Z,10.85
2022-11-05T20:35:16.560Z,10.87
2022-11-05T20:38:42.400Z,10.87
2022-11-05T20:42:07.725Z,10.86
2022-11-05T20:45:33.070Z,10.84
2022-11-05T20:48:58.299Z,10.81
2022-11-05T20:52:23.960Z,10.81
2022-11-05T20:55:50.828Z,10.81
2022-11-05T20:59:16.197Z,10.79
2022-11-05T21:02:41.695Z,10.78
2022-11-05T21:06:06.751Z,10.77
2022-11-05T21:09:32.124Z,10.78
2022-11-05T21:12:57.402Z,10.74
2022-11-05T21:16:22.694Z,10.74
2022-11-05T21:19:47.983Z,10.77
2022-11-05T21:23:13.259Z,10.8
2022-11-05T21:26:38.537Z,10.82
2022-11-05T21:30:03.793Z,10.83
2022-11-05T21:33:29.111Z,10.82
2022-11-05T21:36:54.373Z,10.81
2022-11-05T21:40:19.620Z,10.81
2022-11-05T21:43:44.877Z,10.78
2022-11-05T21:47:10.142Z,10.77
2022-11-05T21:50:35.506Z,10.73
2022-11-05T21:54:00.784Z,10.73
2022-11-05T21:57:26.174Z,10.71
2022-11-05T22:00:51.531Z,10.71
2022-11-05T22:04:16.884Z,10.72
2022-11-05T22:07:42.378Z,10.73
2022-11-05T22:11:08.066Z,10.69
2022-11-05T22:14:33.780Z,10.69
2022-11-05T22:18:00.068Z,10.65
2022-11-05T22:21:25.805Z,10.56
2022-11-05T22:24:51.108Z,10.53
2022-11-05T22:28:16.547Z,10.48
2022-11-05T22:31:42.026Z,10.47
2022-11-05T22:35:07.310Z,10.44
2022-11-05T22:38:32.590Z,10.45
2022-11-05T22:41:57.944Z,10.43
2022-11-05T22:45:23.216Z,10.42
2022-11-05T22:48:48.504Z,10.46
2022-11-05T22:52:13.922Z,10.47
2022-11-05T22:55:39.411Z,10.47
2022-11-05T22:59:04.687Z,10.45
2022-11-05T23:02:30.074Z,10.5
2022-11-05T23:05:55.189Z,10.51
2022-11-05T23:09:20.435Z,10.47
2022-11-05T23:12:45.668Z,10.44
2022-11-05T23:16:10.911Z,10.37
2022-11-05T23:19:36.183Z,10.33
2022-11-05T23:23:01.418Z,10.3
2022-11-05T23:26:26.689Z,10.3
2022-11-05T23:29:51.935Z,10.35
2022-11-05T23:33:17.178Z,10.42
2022-11-05T23:36:42.422Z,10.43
2022-11-05T23:40:07.685Z,10.42
2022-11-05T23:43:32.934Z,10.41
2022-11-05T23:46:58.177Z,10.44
2022-11-05T23:50:23.431Z,10.48
2022-11-05T23:53:48.643Z,10.53
2022-11-05T23:57:13.859Z,10.5
